Time;durP1;ratioP1;P1;durP2;ratioP2;P2;SDS_P1;SDS_P2;PMS_P1;PMS_P2;Temp;Humidity;BMP_temperature;BMP_pressure;BME280_temperature;BME280_humidity;BME280_pressure;Samples;Min_cycle;Max_cycle;Signal;HPM_P1;HPM_P2
2022/03/05 00:02:05;;;;;;;26.80;12.18;;;;;;;;;;5048984;28;20064;-55
2022/03/05 00:04:31;;;;;;;26.10;10.85;;;;;;;;;;5044976;28;20052;-59
2022/03/05 00:06:58;;;;;;;24.55;10.93;;;;;;;;;;5028355;28;20032;-58
2022/03/05 00:09:23;;;;;;;26.02;11.38;;;;;;;;;;5026436;28;20536;-58
2022/03/05 00:11:49;;;;;;;27.00;12.02;;;;;;;;;;5027559;28;20029;-57
2022/03/05 00:14:15;;;;;;;24.75;12.30;;;;;;;;;;5028736;28;20081;-58
2022/03/05 00:16:42;;;;;;;29.80;12.00;;;;;;;;;;5027015;28;20029;-56
2022/03/05 00:19:08;;;;;;;25.70;12.13;;;;;;;;;;5028376;28;20097;-57
2022/03/05 00:21:34;;;;;;;26.88;12.55;;;;;;;;;;5029382;28;20080;-55
2022/03/05 00:24:00;;;;;;;24.02;11.02;;;;;;;;;;5032040;28;20033;-58
2022/03/05 00:26:26;;;;;;;24.10;11.25;;;;;;;;;;5032126;28;20056;-57
2022/03/05 00:28:52;;;;;;;26.02;11.60;;;;;;;;;;5032158;28;20397;-57
2022/03/05 00:31:18;;;;;;;22.20;10.93;;;;;;;;;;5032381;28;20508;-58
2022/03/05 00:33:44;;;;;;;24.40;11.77;;;;;;;;;;5032556;28;20042;-57
2022/03/05 00:36:10;;;;;;;24.02;11.10;;;;;;;;;;5032529;28;20029;-56
2022/03/05 00:38:36;;;;;;;23.95;10.85;;;;;;;;;;5032886;28;20049;-56
2022/03/05 00:41:02;;;;;;;25.73;11.07;;;;;;;;;;5032555;28;20033;-58
2022/03/05 00:43:28;;;;;;;23.60;11.43;;;;;;;;;;5032402;28;20030;-57
2022/03/05 00:45:54;;;;;;;26.13;11.43;;;;;;;;;;5060638;22;20516;-63
2022/03/05 00:48:20;;;;;;;27.48;13.68;;;;;;;;;;5089744;28;20082;-63
2022/03/05 00:50:46;;;;;;;24.10;11.80;;;;;;;;;;5093938;28;20048;-64
2022/03/05 00:53:13;;;;;;;25.23;10.20;;;;;;;;;;5094433;28;20063;-61
2022/03/05 00:55:39;;;;;;;27.42;11.82;;;;;;;;;;5094407;28;20016;-63
2022/03/05 00:58:04;;;;;;;24.83;11.60;;;;;;;;;;5094432;28;20375;-63
2022/03/05 01:00:30;;;;;;;22.92;10.32;;;;;;;;;;5094302;28;20020;-61
2022/03/05 01:02:56;;;;;;;24.42;10.77;;;;;;;;;;5094373;28;20434;-63
2022/03/05 01:05:22;;;;;;;27.40;12.80;;;;;;;;;;5092822;28;20028;-63
2022/03/05 01:07:48;;;;;;;25.77;11.07;;;;;;;;;;5092957;28;20028;-63
2022/03/05 01:10:14;;;;;;;23.35;10.82;;;;;;;;;;5094014;28;20023;-63
2022/03/05 01:12:40;;;;;;;23.05;10.60;;;;;;;;;;5094193;28;20024;-65
2022/03/05 01:15:07;;;;;;;26.08;11.85;;;;;;;;;;5092656;28;20020;-63
2022/03/05 01:17:33;;;;;;;22.00;10.57;;;;;;;;;;5093919;28;20023;-62
2022/03/05 01:19:59;;;;;;;23.55;10.93;;;;;;;;;;5093960;28;20031;-63
2022/03/05 01:22:26;;;;;;;23.02;9.60;;;;;;;;;;5094252;28;20443;-62
2022/03/05 01:24:52;;;;;;;25.17;11.23;;;;;;;;;;5093814;28;20032;-63
2022/03/05 01:27:18;;;;;;;23.30;11.68;;;;;;;;;;5093772;28;20542;-63
2022/03/05 01:29:44;;;;;;;23.08;10.25;;;;;;;;;;5093727;28;20024;-63
2022/03/05 01:32:10;;;;;;;23.80;11.68;;;;;;;;;;5092376;28;20031;-62
2022/03/05 01:34:36;;;;;;;22.33;10.32;;;;;;;;;;5091737;28;20020;-63
2022/03/05 01:37:02;;;;;;;27.35;10.55;;;;;;;;;;5093884;28;20024;-63
2022/03/05 01:39:28;;;;;;;24.67;10.57;;;;;;;;;;5093460;28;20075;-63
2022/03/05 01:41:55;;;;;;;24.13;11.57;;;;;;;;;;5093689;28;20054;-63
2022/03/05 01:44:21;;;;;;;23.52;11.35;;;;;;;;;;5093484;28;20028;-62
2022/03/05 01:46:47;;;;;;;24.10;10.88;;;0.10;99.90;;;;;;5092099;28;20090;-62
2022/03/05 01:49:13;;;;;;;24.73;11.68;;;-0.60;99.90;;;;;;5092081;28;20020;-63
2022/03/05 01:51:40;;;;;;;24.65;10.20;;;-0.60;99.90;;;;;;5092210;28;20024;-64
2022/03/05 01:54:07;;;;;;;26.38;11.00;;;-0.70;99.90;;;;;;5093334;28;20016;-64
2022/03/05 01:56:34;;;;;;;26.55;11.73;;;-0.60;99.90;;;;;;5092097;28;20020;-63
2022/03/05 01:59:00;;;;;;;27.45;11.75;;;-0.70;99.90;;;;;;5093003;28;20020;-64
2022/03/05 02:01:28;;;;;;;22.55;9.48;;;-0.80;99.90;;;;;;5091963;28;20103;-63
2022/03/05 02:03:54;;;;;;;27.48;13.15;;;-0.80;99.90;;;;;;5092896;28;20027;-62
2022/03/05 02:06:21;;;;;;;25.85;11.63;;;-0.90;99.90;;;;;;5091607;28;20028;-63
2022/03/05 02:08:47;;;;;;;25.48;11.98;;;-0.90;99.90;;;;;;5093177;28;20027;-63
2022/03/05 02:11:13;;;;;;;25.27;11.23;;;-1.00;99.90;;;;;;5092978;28;20041;-63
2022/03/05 02:13:38;;;;;;;24.50;11.32;;;-1.00;99.90;;;;;;5092901;28;20381;-63
2022/03/05 02:16:04;;;;;;;27.98;11.98;;;-1.10;99.90;;;;;;5091394;28;20020;-62
2022/03/05 02:18:30;;;;;;;25.33;12.77;;;-1.10;99.90;;;;;;5093160;28;20028;-63
2022/03/05 02:20:55;;;;;;;26.40;12.85;;;-1.10;99.90;;;;;;5092788;28;20031;-62
2022/03/05 02:23:22;;;;;;;27.23;12.45;;;-1.00;99.90;;;;;;5092956;28;20028;-63
2022/03/05 02:25:59;;;;;;;28.60;11.30;;;-1.00;99.90;;;;;;5091423;28;20538;-63
2022/03/05 02:28:26;;;;;;;24.55;11.85;;;-1.00;99.90;;;;;;5091456;28;20034;-63
2022/03/05 02:30:53;;;;;;;27.35;13.32;;;-1.00;99.90;;;;;;5091301;28;20114;-63
2022/03/05 02:33:19;;;;;;;23.40;11.00;;;-1.00;99.90;;;;;;5092706;28;20052;-63
2022/03/05 02:35:45;;;;;;;26.70;11.68;;;-1.00;99.90;;;;;;5091312;28;20030;-63
2022/03/05 02:38:12;;;;;;;27.25;12.00;;;-1.00;99.90;;;;;;5091293;28;20484;-63
2022/03/05 02:40:39;;;;;;;28.98;13.25;;;-1.00;99.90;;;;;;5092343;28;20038;-63
2022/03/05 02:43:06;;;;;;;26.20;11.98;;;-1.00;99.90;;;;;;5092353;28;20108;-63
2022/03/05 02:45:32;;;;;;;26.80;12.63;;;-1.00;99.90;;;;;;5092133;28;20052;-64
2022/03/05 02:47:58;;;;;;;30.42;12.32;;;-1.10;99.90;;;;;;5092449;28;20566;-61
2022/03/05 02:50:23;;;;;;;34.80;13.70;;;-1.00;99.90;;;;;;5091172;28;20506;-60
2022/03/05 02:52:49;;;;;;;32.92;13.50;;;-1.00;99.90;;;;;;5092295;28;20468;-63
2022/03/05 02:55:15;;;;;;;25.45;12.20;;;-1.00;99.90;;;;;;5091106;28;20016;-63
2022/03/05 02:57:40;;;;;;;31.33;13.45;;;-1.10;99.90;;;;;;5092418;28;20043;-63
2022/03/05 03:00:06;;;;;;;26.35;12.75;;;-1.10;99.90;;;;;;5092276;28;20016;-64
2022/03/05 03:02:32;;;;;;;29.35;14.85;;;-1.20;99.90;;;;;;5091155;28;20032;-63
2022/03/05 03:04:58;;;;;;;26.45;11.95;;;-1.20;99.90;;;;;;5092206;28;20035;-65
2022/03/05 03:07:23;;;;;;;28.00;13.30;;;-1.30;99.90;;;;;;5092281;28;20426;-65
2022/03/05 03:09:49;;;;;;;27.67;12.80;;;-1.20;99.90;;;;;;5091919;28;20024;-64
2022/03/05 03:12:14;;;;;;;30.00;12.55;;;-1.20;99.90;;;;;;5090806;28;20030;-65
2022/03/05 03:14:40;;;;;;;27.65;11.82;;;-1.20;99.90;;;;;;5092051;28;20027;-64
2022/03/05 03:17:05;;;;;;;32.90;12.93;;;-1.30;99.90;;;;;;5090822;28;20024;-65
2022/03/05 03:19:32;;;;;;;27.48;12.95;;;-1.30;99.90;;;;;;5090780;28;20024;-64
2022/03/05 03:21:57;;;;;;;28.85;12.93;;;-1.30;99.90;;;;;;5092221;28;20066;-65
2022/03/05 03:24:23;;;;;;;28.15;13.05;;;-1.30;99.90;;;;;;5092088;28;20479;-64
2022/03/05 03:26:48;;;;;;;30.52;13.02;;;-1.40;99.90;;;;;;5092023;28;20036;-64
2022/03/05 03:29:14;;;;;;;30.58;12.88;;;-1.40;99.90;;;;;;5090640;28;20127;-64
2022/03/05 03:31:40;;;;;;;29.40;12.27;;;-1.40;99.90;;;;;;5092097;28;20043;-65
2022/03/05 03:34:05;;;;;;;30.60;13.45;;;-1.40;99.90;;;;;;5091950;28;20024;-66
2022/03/05 03:36:31;;;;;;;30.38;14.07;;;-1.40;99.90;;;;;;5090753;28;20032;-64
2022/03/05 03:38:56;;;;;;;28.67;13.13;;;-1.50;99.90;;;;;;5091702;28;20024;-65
2022/03/05 03:41:22;;;;;;;28.60;14.30;;;-1.50;99.90;;;;;;5092065;28;20024;-64
2022/03/05 03:43:47;;;;;;;30.52;13.90;;;-1.60;99.90;;;;;;5092076;28;20052;-64
2022/03/05 03:46:14;;;;;;;34.85;14.20;;;-1.60;99.90;;;;;;5090421;28;20031;-65
2022/03/05 03:48:40;;;;;;;30.05;14.15;;;-1.60;99.90;;;;;;5091942;28;20016;-65
2022/03/05 03:51:06;;;;;;;31.83;14.32;;;-1.50;99.90;;;;;;5091676;28;20099;-64
2022/03/05 03:53:31;;;;;;;30.50;14.45;;;-1.60;99.90;;;;;;5091540;28;20031;-64
2022/03/05 03:55:57;;;;;;;34.83;14.60;;;-1.60;99.90;;;;;;5090370;28;20438;-64
2022/03/05 03:58:23;;;;;;;34.05;14.73;;;-1.60;99.90;;;;;;5094328;28;20115;-65
2022/03/05 04:00:49;;;;;;;34.03;14.20;;;-1.60;99.90;;;;;;5095886;28;20503;-64
2022/03/05 04:03:14;;;;;;;30.92;12.32;;;-1.60;99.90;;;;;;5095662;28;20107;-65
2022/03/05 04:05:40;;;;;;;32.88;14.35;;;-1.60;99.90;;;;;;5095819;28;20480;-64
2022/03/05 04:10:50;;;;;;;32.92;14.60;;;-1.50;99.90;;;;;;5096630;28;20116;-65
2022/03/05 04:13:15;;;;;;;31.35;13.32;;;-1.60;99.90;;;;;;5095282;28;20111;-65
2022/03/05 04:15:41;;;;;;;30.83;14.43;;;-1.70;99.90;;;;;;5095087;28;20028;-65
2022/03/05 04:18:07;;;;;;;31.38;13.70;;;-1.70;99.90;;;;;;5094009;28;20016;-65
2022/03/05 04:20:33;;;;;;;31.85;14.13;;;-1.60;99.90;;;;;;5095119;28;20027;-66
2022/03/05 04:22:59;;;;;;;31.58;14.52;;;-1.70;99.90;;;;;;5095212;28;20484;-65
2022/03/05 04:25:26;;;;;;;32.85;13.57;;;-1.70;99.90;;;;;;5094968;28;20060;-65
2022/03/05 04:27:51;;;;;;;28.58;12.73;;;-1.80;99.90;;;;;;5095113;28;20028;-65
2022/03/05 04:30:18;;;;;;;32.25;14.60;;;;;;;;;;5094932;28;20024;-65
2022/03/05 04:32:44;;;;;;;33.38;15.88;;;;;;;;;;5094793;28;20070;-65
2022/03/05 04:35:10;;;;;;;31.48;15.27;;;;;;;;;;5093546;28;20028;-64
2022/03/05 04:37:37;;;;;;;34.08;14.20;;;;;;;;;;5094723;28;20028;-65
2022/03/05 04:40:03;;;;;;;33.67;14.90;;;-1.80;99.90;;;;;;5094938;28;20472;-64
2022/03/05 04:42:29;;;;;;;31.58;14.20;;;-1.90;99.90;;;;;;5093443;28;20123;-64
2022/03/05 04:44:55;;;;;;;34.58;14.70;;;-2.00;99.90;;;;;;5094814;28;20158;-64
2022/03/05 04:47:21;;;;;;;32.75;13.55;;;-2.00;99.90;;;;;;5093406;28;20241;-65
2022/03/05 04:49:46;;;;;;;30.48;15.77;;;-1.90;99.90;;;;;;5094494;28;20024;-64
2022/03/05 04:52:12;;;;;;;35.92;15.98;;;-1.90;99.90;;;;;;5094720;28;20051;-65
2022/03/05 04:54:38;;;;;;;34.58;16.85;;;-1.90;99.90;;;;;;5094543;28;20016;-65
2022/03/05 04:57:03;;;;;;;38.05;14.02;;;-1.90;99.90;;;;;;5094833;28;20498;-64
2022/03/05 04:59:29;;;;;;;33.47;15.93;;;-1.90;99.90;;;;;;5094510;28;20016;-65
2022/03/05 05:01:58;;;;;;;32.83;14.43;;;-1.90;99.90;;;;;;5094837;28;20031;-64
2022/03/05 05:04:24;;;;;;;33.15;14.88;;;-2.00;99.90;;;;;;5094447;28;20025;-64
2022/03/05 05:06:49;;;;;;;33.63;15.40;;;-1.90;99.90;;;;;;5094683;28;20103;-64
2022/03/05 05:09:15;;;;;;;36.28;15.68;;;-1.80;99.90;;;;;;5093069;28;20076;-65
2022/03/05 05:11:42;;;;;;;33.00;15.32;;;-1.90;99.90;;;;;;5094165;28;20032;-65
2022/03/05 05:14:08;;;;;;;37.55;14.75;;;-1.80;99.90;;;;;;5094216;28;20020;-64
2022/03/05 05:16:34;;;;;;;31.65;14.30;;;-1.90;99.90;;;;;;5092856;28;20052;-65
2022/03/05 05:21:44;;;;;;;38.20;15.40;;;-1.90;99.90;;;;;;5094187;28;20144;-64
2022/03/05 05:24:09;;;;;;;37.78;16.55;;;-1.90;99.90;;;;;;5094163;28;20036;-64
2022/03/05 05:26:35;;;;;;;34.88;14.73;;;-1.90;99.90;;;;;;5093860;28;20035;-65
2022/03/05 05:29:01;;;;;;;35.60;16.55;;;-2.00;99.90;;;;;;5093911;28;20028;-64
2022/03/05 05:31:27;;;;;;;39.42;17.17;;;-2.00;99.90;;;;;;5092510;28;20104;-64
2022/03/05 05:33:52;;;;;;;42.60;19.35;;;-2.10;99.90;;;;;;5093839;28;20020;-65
2022/03/05 05:36:19;;;;;;;39.33;17.10;;;;;;;;;;5093543;28;20590;-68
2022/03/05 05:38:45;;;;;;;38.33;16.88;;;;;;;;;;5093840;28;20023;-66
2022/03/05 05:41:12;;;;;;;37.83;16.88;;;;;;;;;;5093586;28;20027;-65
2022/03/05 05:43:38;;;;;;;38.40;15.95;;;;;;;;;;5093958;28;20407;-65
2022/03/05 05:46:04;;;;;;;40.58;15.23;;;;;;;;;;5091948;28;20096;-65
2022/03/05 05:48:31;;;;;;;42.13;16.80;;;;;;;;;;5093697;28;20544;-64
2022/03/05 05:50:57;;;;;;;35.75;17.50;;;;;;;;;;5092262;28;20032;-65
2022/03/05 05:53:25;;;;;;;37.17;15.90;;;;;;;;;;5093675;28;20020;-64
2022/03/05 05:55:51;;;;;;;36.80;18.45;;;;;;;;;;5092317;28;20066;-63
2022/03/05 05:58:17;;;;;;;36.53;16.88;;;;;;;;;;5093789;28;20012;-64
2022/03/05 06:00:43;;;;;;;38.20;15.48;;;;;;;;;;5092719;28;20031;-67
2022/03/05 06:03:09;;;;;;;41.50;16.02;;;;;;;;;;5093510;28;20440;-64
2022/03/05 06:05:35;;;;;;;41.03;17.45;;;;;;;;;;5093159;28;20026;-63
2022/03/05 06:08:01;;;;;;;38.80;18.42;;;;;;;;;;5092949;28;20035;-65
2022/03/05 06:10:27;;;;;;;38.88;17.30;;;;;;;;;;5091110;28;20028;-64
2022/03/05 06:12:53;;;;;;;39.30;17.15;;;;;;;;;;5093109;28;20020;-65
2022/03/05 06:15:19;;;;;;;39.72;16.92;;;;;;;;;;5093366;28;20495;-64
2022/03/05 06:17:45;;;;;;;38.80;17.02;;;-2.10;99.90;;;;;;5093316;28;20019;-64
2022/03/05 06:20:11;;;;;;;36.08;16.10;;;-2.10;99.90;;;;;;5092613;28;20448;-65
2022/03/05 06:22:37;;;;;;;41.15;16.80;;;-2.00;99.90;;;;;;5092652;28;20108;-63
2022/03/05 06:25:05;;;;;;;40.08;17.38;;;-2.00;99.90;;;;;;5092842;28;20055;-65
2022/03/05 06:27:30;;;;;;;33.53;14.65;;;-2.00;99.90;;;;;;5092884;28;20067;-64
2022/03/05 06:29:56;;;;;;;39.95;16.77;;;-2.00;99.90;;;;;;5092874;28;20028;-64
2022/03/05 06:32:21;;;;;;;40.38;16.17;;;-2.00;99.90;;;;;;5092906;28;20054;-65
2022/03/05 06:34:47;;;;;;;34.25;16.88;;;-1.90;99.90;;;;;;5091423;28;20567;-66
2022/03/05 06:37:13;;;;;;;40.15;17.45;;;-1.90;99.90;;;;;;5092787;28;20061;-64
2022/03/05 06:39:39;;;;;;;37.97;15.45;;;-1.70;99.90;;;;;;5092752;28;20035;-64
2022/03/05 06:42:05;;;;;;;40.22;16.52;;;-1.70;99.90;;;;;;5091502;28;20465;-63
2022/03/05 06:44:31;;;;;;;37.63;16.45;;;-1.80;99.90;;;;;;5092789;28;20032;-64
2022/03/05 06:46:58;;;;;;;35.05;14.77;;;-1.70;99.90;;;;;;5115014;22;20097;-60
2022/03/05 06:49:23;;;;;;;38.85;18.50;;;-1.70;99.90;;;;;;5091138;28;20024;-60
2022/03/05 06:51:49;;;;;;;33.13;15.52;;;-1.60;99.90;;;;;;5092357;28;20384;-60
2022/03/05 06:54:14;;;;;;;36.38;15.27;;;-1.60;99.90;;;;;;5091188;28;20050;-60
2022/03/05 06:56:40;;;;;;;35.08;15.63;;;-1.50;99.90;;;;;;5091450;28;20054;-58
2022/03/05 06:59:06;;;;;;;35.80;15.02;;;-1.40;99.90;;;;;;5091169;28;20441;-61
2022/03/05 07:01:32;;;;;;;38.80;16.08;;;-1.30;99.90;;;;;;5090917;28;20040;-60
2022/03/05 07:03:57;;;;;;;36.78;16.17;;;-1.10;99.90;;;;;;5091096;28;20100;-61
2022/03/05 07:06:23;;;;;;;38.28;16.85;;;-1.00;99.90;;;;;;5090867;28;20377;-60
2022/03/05 07:08:49;;;;;;;34.30;15.70;;;-1.00;99.90;;;;;;5091103;28;20027;-58
2022/03/05 07:11:15;;;;;;;39.13;17.00;;;-0.90;99.90;;;;;;5090027;28;20508;-61
2022/03/05 07:13:40;;;;;;;40.08;17.58;;;-0.90;99.90;;;;;;5091178;28;20039;-60
2022/03/05 07:16:06;;;;;;;35.13;15.88;;;-0.90;99.90;;;;;;5091055;28;20469;-61
2022/03/05 07:18:32;;;;;;;33.72;16.40;;;-0.80;99.90;;;;;;5090693;28;20027;-61
2022/03/05 07:20:58;;;;;;;35.75;17.52;;;-0.80;99.90;;;;;;5089264;28;20412;-61
2022/03/05 07:23:24;;;;;;;33.35;15.00;;;-0.70;99.90;;;;;;5090627;28;20039;-61
2022/03/05 07:25:50;;;;;;;37.75;15.77;;;-0.70;99.90;;;;;;5090745;28;20369;-60
2022/03/05 07:28:16;;;;;;;36.53;17.05;;;-0.60;99.90;;;;;;5089212;28;20113;-60
2022/03/05 07:30:42;;;;;;;32.90;16.48;;;-0.50;99.90;;;;;;5090526;28;20024;-61
2022/03/05 07:33:08;;;;;;;38.00;16.38;;;-0.40;99.90;;;;;;5093349;28;20398;-60
2022/03/05 07:35:34;;;;;;;33.28;15.95;;;-0.30;99.90;;;;;;5094842;28;20369;-61
2022/03/05 07:38:00;;;;;;;38.72;18.40;;;-0.20;99.90;;;;;;5095042;28;20109;-61
2022/03/05 07:40:26;;;;;;;36.22;17.20;;;-0.20;99.90;;;;;;5094679;28;20028;-62
2022/03/05 07:42:51;;;;;;;39.95;16.98;;;0.00;99.90;;;;;;5094926;28;20028;-60
2022/03/05 07:45:17;;;;;;;38.40;17.33;;;0.00;99.90;;;;;;5094568;28;20502;-61
2022/03/05 07:47:43;;;;;;;37.55;17.90;;;0.00;99.90;;;;;;5101147;28;20499;-61
2022/03/05 07:50:09;;;;;;;34.58;15.75;;;0.10;99.90;;;;;;5113659;28;20035;-61
2022/03/05 07:52:35;;;;;;;36.50;17.90;;;0.10;99.90;;;;;;5114980;28;20115;-60
2022/03/05 07:55:01;;;;;;;38.95;15.88;;;0.20;99.90;;;;;;5114948;28;20111;-61
2022/03/05 07:57:26;;;;;;;32.25;15.43;;;0.20;99.90;;;;;;5113829;28;20023;-61
2022/03/05 07:59:52;;;;;;;33.20;16.98;;;0.30;99.90;;;;;;5115070;28;20027;-61
2022/03/05 08:02:17;;;;;;;40.97;15.88;;;0.40;99.90;;;;;;5114951;28;20024;-62
2022/03/05 08:04:44;;;;;;;37.67;17.70;;;0.50;99.90;;;;;;5114699;28;20408;-62
2022/03/05 08:07:10;;;;;;;37.17;17.65;;;0.60;99.90;;;;;;5114569;27;20054;-63
2022/03/05 08:09:36;;;;;;;34.17;14.93;;;0.60;99.90;;;;;;5113365;28;20031;-61
2022/03/05 08:12:03;;;;;;;39.80;16.70;;;0.70;99.90;;;;;;5114596;28;20398;-61
2022/03/05 08:14:29;;;;;;;35.63;17.00;;;0.80;99.90;;;;;;5114576;28;20102;-61
2022/03/05 08:16:55;;;;;;;41.08;17.83;;;0.80;99.90;;;;;;5114308;28;20550;-61
2022/03/05 08:19:20;;;;;;;37.13;17.98;;;1.00;99.90;;;;;;5113951;28;20019;-62
2022/03/05 08:21:46;;;;;;;36.33;18.83;;;1.00;99.90;;;;;;5114285;28;20495;-61
2022/03/05 08:24:11;;;;;;;35.75;18.30;;;1.00;99.90;;;;;;5102558;28;20113;-63
2022/03/05 08:26:37;;;;;;;37.22;16.65;;;1.10;99.90;;;;;;5103488;28;20468;-59
2022/03/05 08:29:04;;;;;;;38.15;15.65;;;1.20;99.90;;;;;;5101198;28;20387;-61
2022/03/05 08:31:31;;;;;;;35.72;17.55;;;1.20;99.90;;;;;;5099861;28;20058;-60
2022/03/05 08:33:58;;;;;;;33.10;16.63;;;1.30;99.90;;;;;;5100341;28;20024;-58
2022/03/05 08:36:24;;;;;;;35.47;17.23;;;1.40;99.90;;;;;;5100219;28;20476;-62
2022/03/05 08:38:50;;;;;;;33.88;16.33;;;1.50;99.90;;;;;;5091902;28;20035;-63
2022/03/05 08:41:16;;;;;;;39.17;18.63;;;1.50;99.90;;;;;;5093649;28;20024;-63
2022/03/05 08:43:42;;;;;;;40.05;17.33;;;1.60;99.90;;;;;;5096040;28;20496;-64
2022/03/05 08:46:08;;;;;;;41.80;17.70;;;1.60;99.90;;;;;;5113903;28;20020;-62
2022/03/05 08:48:34;;;;;;;42.25;19.70;;;1.80;99.90;;;;;;5104614;28;20503;-61
2022/03/05 08:51:00;;;;;;;38.53;18.10;;;1.80;99.90;;;;;;5093066;28;20070;-62
2022/03/05 08:53:26;;;;;;;39.83;19.42;;;1.90;99.90;;;;;;5091852;28;20115;-62
2022/03/05 08:55:52;;;;;;;38.28;16.95;;;2.10;99.90;;;;;;5093155;28;20450;-62
2022/03/05 08:58:19;;;;;;;41.05;18.65;;;2.10;99.90;;;;;;5112464;28;20072;-62
2022/03/05 09:00:45;;;;;;;40.42;19.08;;;2.20;99.90;;;;;;5113513;27;20027;-61
2022/03/05 09:03:10;;;;;;;36.72;17.13;;;2.20;99.90;;;;;;5113452;28;20028;-63
2022/03/05 09:05:36;;;;;;;35.53;18.20;;;2.30;99.90;;;;;;5113257;28;20460;-61
2022/03/05 09:08:02;;;;;;;34.60;17.67;;;2.40;99.90;;;;;;5113490;28;20031;-64
2022/03/05 09:10:28;;;;;;;39.95;18.80;;;2.50;99.90;;;;;;5113334;27;20023;-62
2022/03/05 09:12:53;;;;;;;37.05;16.92;;;2.60;99.90;;;;;;5113163;28;20089;-62
2022/03/05 09:15:19;;;;;;;34.08;16.85;;;2.70;99.90;;;;;;5094412;28;20410;-63
2022/03/05 09:17:45;;;;;;;42.25;18.08;;;2.80;99.90;;;;;;5106040;28;20521;-62
2022/03/05 09:20:11;;;;;;;33.55;17.45;;;2.80;99.90;;;;;;5113121;28;20032;-62
2022/03/05 09:22:44;;;;;;;36.25;17.35;;;2.90;99.90;;;;;;5037549;28;10000378;-61
2022/03/05 09:25:11;;;;;;;37.25;17.60;;;3.00;99.90;;;;;;5086283;28;20380;-59
2022/03/05 09:27:37;;;;;;;37.70;18.35;;;3.10;99.90;;;;;;5089897;28;20143;-57
2022/03/05 09:30:05;;;;;;;36.85;17.55;;;3.20;99.90;;;;;;5089133;28;20460;-60
2022/03/05 09:32:31;;;;;;;34.85;16.85;;;3.30;99.90;;;;;;5078163;28;20052;-60
2022/03/05 09:34:59;;;;;;;35.90;17.30;;;3.40;99.90;;;;;;5069213;28;20063;-59
2022/03/05 09:37:30;;;;;;;32.67;16.13;;;3.50;99.90;;;;;;5069144;28;20051;-59
2022/03/05 09:39:58;;;;;;;33.10;16.38;;;3.50;99.90;;;;;;5069117;28;20488;-58
2022/03/05 09:42:25;;;;;;;30.10;16.25;;;3.60;99.90;;;;;;5069352;28;20059;-60
2022/03/05 09:44:50;;;;;;;32.67;16.65;;;3.70;99.90;;;;;;5070190;28;20029;-61
2022/03/05 09:47:16;;;;;;;37.67;18.27;;;3.80;99.90;;;;;;5068896;28;20793;-61
2022/03/05 09:49:42;;;;;;;39.10;18.15;;;3.90;99.90;;;;;;5090317;28;20075;-58
2022/03/05 09:52:09;;;;;;;36.90;18.13;;;4.00;99.90;;;;;;5093686;28;20095;-59
2022/03/05 09:54:36;;;;;;;35.75;18.73;;;4.00;99.90;;;;;;5100847;28;20042;-61
2022/03/05 09:57:09;;;;;;;35.83;18.23;;;4.10;99.90;;;;;;5101107;28;20430;-61
2022/03/05 09:59:35;;;;;;;45.50;16.27;;;4.20;99.90;;;;;;4742255;28;10000261;-61
2022/03/05 10:02:02;;;;;;;37.75;17.77;;;4.40;99.90;;;;;;5069327;28;20783;-61
2022/03/05 10:04:28;;;;;;;30.65;16.30;;;4.50;99.90;;;;;;5067955;28;20028;-62
2022/03/05 10:07:15;;;;;;;33.67;16.90;;;4.60;99.90;;;;;;5067727;28;20032;-67
2022/03/05 10:09:43;;;;;;;87.35;49.20;;;4.70;99.90;;;;;;5068121;28;20157;-68
2022/03/05 10:12:29;;;;;;;;;;;4.90;99.90;;;;;;5084737;28;20016;-61
2022/03/05 10:15:14;;;;;;;36.08;20.48;;;4.80;99.90;;;;;;5088911;28;19951;-61
2022/03/05 10:17:56;;;;;;;37.33;17.75;;;5.10;99.90;;;;;;5088439;28;20050;-59
2022/03/05 10:20:26;;;;;;;33.92;17.30;;;5.10;99.90;;;;;;5087781;28;20110;-61
2022/03/05 10:23:00;;;;;;;33.53;16.75;;;5.20;99.90;;;;;;5089068;28;20094;-60
2022/03/05 10:25:29;;;;;;;34.03;16.42;;;5.30;99.90;;;;;;5090927;28;20055;-58
2022/03/05 10:28:06;;;;;;;35.30;16.70;;;5.40;99.90;;;;;;5087679;28;20056;-57
2022/03/05 10:30:39;;;;;;;34.47;17.77;;;5.60;99.90;;;;;;5089506;28;20377;-61
2022/03/05 10:33:05;;;;;;;37.08;17.73;;;5.50;99.90;;;;;;5091430;28;20605;-61
2022/03/05 10:35:32;;;;;;;37.00;19.80;;;5.60;99.90;;;;;;5088571;28;20426;-59
2022/03/05 10:37:57;;;;;;;39.03;18.77;;;5.80;99.90;;;;;;5090554;28;20089;-60
2022/03/05 10:40:34;;;;;;;32.33;18.05;;;6.00;99.90;;;;;;5091101;28;20023;-59
2022/03/05 10:43:07;;;;;;;32.88;15.98;;;6.00;99.90;;;;;;5091195;28;20032;-60
2022/03/05 10:45:51;;;;;;;33.78;16.75;;;6.10;99.90;;;;;;5074045;28;20042;-65
2022/03/05 10:48:24;;;;;;;42.28;16.77;;;6.30;99.90;;;;;;5090766;28;20420;-63
2022/03/05 10:51:12;;;;;;;32.35;16.23;;;6.40;99.90;;;;;;5090184;28;20055;-63
2022/03/05 10:53:45;;;;;;;35.67;17.70;;;6.20;99.90;;;;;;5089748;28;20035;-64
2022/03/05 10:56:24;;;;;;;35.38;17.00;;;6.20;99.90;;;;;;5090820;28;20070;-62
2022/03/05 10:59:07;;;;;;;33.15;16.02;;;6.30;99.90;;;;;;5088822;28;20020;-63
2022/03/05 11:01:37;;;;;;;35.20;17.75;;;6.40;99.90;;;;;;5090913;28;20032;-62
2022/03/05 11:04:04;;;;;;;30.95;15.48;;;6.60;99.90;;;;;;5090498;28;20383;-63
2022/03/05 11:06:29;;;;;;;34.65;17.90;;;6.80;99.90;;;;;;5089475;28;20038;-63
2022/03/05 11:08:57;;;;;;;34.22;17.05;;;7.00;99.90;;;;;;5090467;28;20103;-64
2022/03/05 11:11:23;;;;;;;31.45;16.67;;;;;;;;;;5090790;28;20020;-65
2022/03/05 11:13:49;;;;;;;29.83;16.67;;;7.10;99.90;;;;;;5090648;28;20108;-65
2022/03/05 11:16:15;;;;;;;34.85;17.90;;;7.70;99.90;;;;;;5090540;28;20051;-65
2022/03/05 11:18:41;;;;;;;32.53;17.88;;;8.30;99.90;;;;;;5090810;28;20471;-64
2022/03/05 11:21:08;;;;;;;31.88;17.98;;;9.20;99.90;;;;;;5089847;28;20568;-63
2022/03/05 11:23:35;;;;;;;30.10;17.60;;;10.00;98.70;;;;;;5090268;28;20024;-64
2022/03/05 11:26:02;;;;;;;31.70;18.93;;;10.60;96.40;;;;;;5089928;28;20100;-58
2022/03/05 11:28:39;;;;;;;33.97;18.55;;;11.60;94.60;;;;;;5090639;28;20103;-61
2022/03/05 11:31:19;;;;;;;30.92;18.17;;;11.20;93.40;;;;;;5090032;28;20020;-59
2022/03/05 11:33:46;;;;;;;33.83;19.60;;;11.40;92.60;;;;;;5090388;28;20289;-59
2022/03/05 11:36:27;;;;;;;33.50;19.15;;;11.80;91.80;;;;;;5089692;28;20480;-57
2022/03/05 11:39:14;;;;;;;32.55;20.20;;;12.50;90.80;;;;;;5090183;28;20488;-58
2022/03/05 11:42:05;;;;;;;32.53;21.05;;;13.50;88.90;;;;;;5101742;28;20100;-61
2022/03/05 11:44:36;;;;;;;29.85;20.77;;;14.00;83.40;;;;;;5108741;28;20416;-58
2022/03/05 11:47:22;;;;;;;32.05;20.23;;;14.00;82.90;;;;;;5108573;28;20118;-57
2022/03/05 11:49:59;;;;;;;31.70;19.85;;;14.60;81.40;;;;;;5068431;28;20111;-58
2022/03/05 11:52:41;;;;;;;33.00;21.35;;;15.00;77.10;;;;;;5069739;28;20100;-58
2022/03/05 11:55:18;;;;;;;31.63;19.88;;;15.90;74.50;;;;;;5069882;28;20542;-57
2022/03/05 11:57:43;;;;;;;32.13;20.70;;;15.00;73.10;;;;;;5068777;28;20029;-57
2022/03/05 12:00:10;;;;;;;30.20;20.88;;;15.00;72.90;;;;;;5103244;28;20460;-60
2022/03/05 12:02:56;;;;;;;39.13;23.73;;;15.40;71.60;;;;;;5110420;28;20024;-59
2022/03/05 12:05:37;;;;;;;32.65;21.75;;;15.80;68.80;;;;;;5109455;28;20024;-58
2022/03/05 12:08:22;;;;;;;32.45;22.50;;;16.10;67.60;;;;;;5110342;28;20020;-63
2022/03/05 12:11:13;;;;;;;32.10;22.85;;;16.70;67.00;;;;;;5110344;28;20092;-61
2022/03/05 12:13:59;;;;;;;32.75;22.90;;;16.50;65.60;;;;;;5110618;28;20027;-61
2022/03/05 12:16:27;;;;;;;33.55;23.77;;;17.00;64.30;;;;;;5110050;28;20414;-62
2022/03/05 12:18:59;;;;;;;30.88;21.80;;;16.90;64.50;;;;;;5112943;28;20059;-67
2022/03/05 12:21:33;;;;;;;29.52;21.98;;;15.80;65.10;;;;;;4388013;28;10000308;-61
2022/03/05 12:24:09;;;;;;;33.33;23.42;;;16.70;64.50;;;;;;4737885;28;9999634;-62
2022/03/05 12:26:41;;;;;;;33.15;23.05;;;17.10;63.50;;;;;;5090616;28;20032;-63
2022/03/05 12:29:08;;;;;;;29.15;21.90;;;17.20;62.10;;;;;;5090009;28;20563;-63
2022/03/05 12:31:41;;;;;;;31.27;22.20;;;16.90;61.60;;;;;;5090022;28;20046;-63
2022/03/05 12:34:07;;;;;;;33.40;23.65;;;17.50;61.40;;;;;;5092077;28;20081;-63
2022/03/05 12:36:34;;;;;;;34.75;22.45;;;17.70;60.30;;;;;;5107676;28;20509;-63
2022/03/05 12:39:00;;;;;;;31.75;22.95;;;18.20;59.80;;;;;;5102798;28;20089;-63
2022/03/05 12:41:28;;;;;;;31.02;22.88;;;18.20;59.40;;;;;;5094499;28;20024;-65
2022/03/05 12:43:55;;;;;;;33.35;24.10;;;18.70;59.60;;;;;;5100032;28;20474;-63
2022/03/05 12:46:21;;;;;;;31.80;22.45;;;19.00;57.80;;;;;;5106818;27;20062;-64
2022/03/05 12:48:46;;;;;;;30.40;23.33;;;19.50;57.70;;;;;;5104489;28;20031;-63
2022/03/05 12:51:12;;;;;;;28.75;21.92;;;19.60;56.80;;;;;;5108593;28;20092;-61
2022/03/05 12:53:40;;;;;;;28.27;20.27;;;19.60;53.70;;;;;;5099162;28;20129;-61
2022/03/05 12:56:06;;;;;;;28.20;21.58;;;19.80;51.50;;;;;;5095377;28;20016;-63
2022/03/05 12:58:37;;;;;;;29.33;21.50;;;19.60;52.10;;;;;;5090662;28;20123;-62